Avilla, Missouri
Current Conditions -  °F | °C
As of 6:53 PM on Thursday 30 Oct 2014 (Local Time) from KJLN Reporting Station
Clear Clear  
Wind Chill: 59°   Ceiling: Unl
Heat Index: 59°   Visibility: 10mi
Dew Point: 39°   Wind: 9mph
Humidity: 48%   Direction: 310°NW
Pressure: 30.07"   Gusts: NA
Location:  37.2°N, 94.13°W
Report Text: KJLN 302353Z 31008KT 10SM CLR 15/04 A3007 RMK AO2 SLP179 60013 T01500039 10211 20150 52014 $
Loading
Personal Weather Stations






























Interactive Weather Map
Tropical Storm Tracking
New forecast layout! Learn more

10-Day Weather Forecast

Advertisements
Track Severe Weather on mobile